Terminal Aerodrome Forecast
Issued by NWS

Home | Current Version | Previous Version | Text Only | Print | Product List | Glossary On
Versions: 1 2 3 4 5 6 7 8 9 10 11 12 13 14 15 16 17 18 19 20 21 22 23 24 25
953
FTAK31 PAFA 120523
TAFABT
TAF
PABT 120523Z 1206/1306 34003KT 3SM -SN BR OVC025
     FM120900 36004KT 1 1/2SM -SN BR OVC015
     FM122100 35004KT 3SM BR OVC070=

USA.gov is the U.S. government's official web portal to all federal, state and local government web resources and services.